CMA CGM Columba — 2DBC9 — position and weather

sailwx.info

Track history (hours):
 
Tides and Currents Weather Stations Pressure Air Temp Water Temp Dewpoint Dewpoint Depression Visibility Wind Speed Wind Dir Waves Ship Positions

CMA CGM Columba

Last reported at 2018-Feb-21 15:03 UTC. Time now 2018-Feb-23 03:03 UTC.
Position N 31°39' E 032°28'.

Length 363 m; draft 14.5 m.

Type: Ship (hazmat cat D). MMSI: 235077448.

Date/timePositionNaut miles runAvg speedWind from/ knotsBaromVisibWave heightAir tempDewpointWater temp
2018-Feb-21 15:03N 31°39' E 032°28'312.6
2018-Feb-21 14:48N 31°40' E 032°31'412.3
2018-Feb-21 14:29N 31°42' E 032°35'  
2018-Feb-17 10:55N 35°43' E 014°56'818.5
2018-Feb-17 10:30N 35°44' E 014°47'916.8
2018-Feb-17 09:58N 35°47' E 014°37'4 8.8
2018-Feb-17 09:30N 35°49' E 014°32'0 0.0
2018-Feb-16 16:13N 35°49' E 014°32'0 0.0
2018-Feb-16 08:46N 35°49' E 014°32'0 1.1
2018-Feb-16 08:25N 35°49' E 014°32'2 5.8
2018-Feb-16 08:00N 35°48' E 014°35'1 1.9
2018-Feb-16 07:30N 35°47' E 014°36'0 0.6
2018-Feb-16 07:00N 35°47' E 014°36'45912.9
2018-Feb-14 19:21N 42°28' E 009°49'2814.3
2018-Feb-14 17:22N 42°55' E 009°37'514.3
2018-Feb-14 17:01N 43°00' E 009°36'714.7
2018-Feb-14 16:30N 43°07' E 009°32'714.7
2018-Feb-14 16:01N 43°14' E 009°27'714.5
2018-Feb-14 15:31N 43°20' E 009°23'714.4
2018-Feb-14 15:01N 43°27' E 009°19'713.8
2018-Feb-14 14:30N 43°33' E 009°15'918.1
2018-Feb-14 14:01N 43°41' E 009°10'918.8
2018-Feb-14 13:30N 43°49' E 009°03'1018.7
2018-Feb-14 13:00N 43°58' E 008°58'918.6
2018-Feb-14 12:30N 44°06' E 008°52'919.0
2018-Feb-14 12:01N 44°15' E 008°46'816.5
2018-Feb-14 11:31N 44°23' E 008°43'4 7.7
2018-Feb-14 11:00N 44°25' E 008°47'0 0.4
2018-Feb-14 10:30N 44°25' E 008°47'0 0.0
2018-Feb-14 10:00N 44°25' E 008°47'0 0.0
2018-Feb-14 09:30N 44°25' E 008°47'0 0.0
2018-Feb-14 09:00N 44°25' E 008°47'0 0.0
2018-Feb-14 08:30N 44°25' E 008°47'0 0.0
2018-Feb-14 08:00N 44°25' E 008°47'0 0.0
2018-Feb-14 07:30N 44°25' E 008°47'0 0.0
2018-Feb-14 07:00N 44°25' E 008°47'0 0.0
2018-Feb-14 06:30N 44°25' E 008°47'0 0.0
2018-Feb-14 06:00N 44°25' E 008°47'0 0.0
2018-Feb-14 05:30N 44°25' E 008°47'0 0.0
2018-Feb-14 05:00N 44°25' E 008°47'0 0.0
2018-Feb-14 04:30N 44°25' E 008°47'0 0.0
2018-Feb-14 04:00N 44°25' E 008°47'0 0.0
2018-Feb-14 03:30N 44°25' E 008°47'0 0.0
2018-Feb-14 03:00N 44°25' E 008°47'0 0.0
2018-Feb-14 02:30N 44°25' E 008°47'0 0.0
2018-Feb-14 02:00N 44°25' E 008°47'0 0.0
2018-Feb-14 01:30N 44°25' E 008°47'0 0.0
2018-Feb-14 00:57N 44°25' E 008°47'0 0.0
2018-Feb-14 00:30N 44°25' E 008°47'0 0.0
2018-Feb-14 00:00N 44°25' E 008°47'0 0.0
2018-Feb-13 23:30N 44°25' E 008°47'0 0.0
2018-Feb-13 23:00N 44°25' E 008°47'0 0.0
2018-Feb-13 22:30N 44°25' E 008°47'0 0.0
2018-Feb-13 22:00N 44°25' E 008°47'0 0.0
2018-Feb-13 21:27N 44°25' E 008°47'0 0.0
2018-Feb-13 20:57N 44°25' E 008°47'0 0.0
2018-Feb-13 20:30N 44°25' E 008°47'0 0.0
2018-Feb-13 20:00N 44°25' E 008°47'0 0.0
2018-Feb-13 19:30N 44°25' E 008°47'0 0.0
2018-Feb-13 18:57N 44°25' E 008°47'0 0.0
2018-Feb-13 18:30N 44°25' E 008°47'0 0.0
2018-Feb-13 18:00N 44°25' E 008°47'0 0.0
2018-Feb-13 17:30N 44°25' E 008°47'0 0.0
2018-Feb-13 17:00N 44°25' E 008°47'0 0.0
2018-Feb-13 16:30N 44°25' E 008°47'0 0.0
2018-Feb-13 15:57N 44°25' E 008°47'0 0.0
2018-Feb-13 15:30N 44°25' E 008°47'0 0.0
2018-Feb-13 15:00N 44°25' E 008°47'0 0.0
2018-Feb-13 14:30N 44°25' E 008°47'0 0.0
2018-Feb-13 14:00N 44°25' E 008°47'0 0.0
2018-Feb-13 13:30N 44°25' E 008°47'0 0.0
2018-Feb-13 13:00N 44°25' E 008°47'0 0.0
2018-Feb-13 12:30N 44°25' E 008°47'0 0.1
2018-Feb-13 12:00N 44°25' E 008°47'0 0.1
2018-Feb-13 11:27N 44°25' E 008°47'0 0.0
2018-Feb-13 11:00N 44°25' E 008°47'0 0.0
2018-Feb-13 10:30N 44°25' E 008°47'0 0.0
2018-Feb-13 10:00N 44°25' E 008°47'0 0.0
2018-Feb-13 09:30N 44°25' E 008°47'0 0.0
2018-Feb-13 09:00N 44°25' E 008°47'0 0.0
2018-Feb-13 08:30N 44°25' E 008°47'0 0.0
2018-Feb-13 08:00N 44°25' E 008°47'0 0.0
2018-Feb-13 07:30N 44°25' E 008°47'0 0.0
2018-Feb-13 07:00N 44°25' E 008°47'0 0.0
2018-Feb-13 06:30N 44°25' E 008°47'0 0.0
2018-Feb-13 06:00N 44°25' E 008°47'0 0.0
2018-Feb-13 05:30N 44°25' E 008°47'0 0.1
2018-Feb-13 05:00N 44°25' E 008°47'1 2.6
2018-Feb-13 04:30N 44°25' E 008°45'2 3.6
2018-Feb-13 04:00N 44°23' E 008°45'0 0.6
2018-Feb-13 03:30N 44°23' E 008°45'0 0.2
2018-Feb-13 03:00N 44°23' E 008°45'0 0.0
2018-Feb-13 02:30N 44°23' E 008°45'0 0.0
2018-Feb-13 02:00N 44°23' E 008°45'0 0.1
2018-Feb-13 01:30N 44°23' E 008°45'0 0.0
2018-Feb-13 01:00N 44°23' E 008°45'0 0.1
2018-Feb-13 00:30N 44°23' E 008°45'0 0.0
2018-Feb-13 00:00N 44°23' E 008°45'0 0.1
2018-Feb-12 23:30N 44°23' E 008°45'0 0.0
2018-Feb-12 23:00N 44°23' E 008°45'0 0.0
2018-Feb-12 22:30N 44°23' E 008°45'0 0.0
2018-Feb-12 22:00N 44°23' E 008°45'0 0.1
2018-Feb-12 21:30N 44°23' E 008°45'0 0.0
2018-Feb-12 21:00N 44°23' E 008°45'0 0.0
2018-Feb-12 20:30N 44°23' E 008°45'0 0.1
2018-Feb-12 20:00N 44°23' E 008°45'0 0.0
2018-Feb-12 19:30N 44°23' E 008°45'0 0.2
2018-Feb-12 19:00N 44°23' E 008°45'1 2.9
2018-Feb-12 18:30N 44°22' E 008°44'3 5.7
2018-Feb-12 18:00N 44°19' E 008°42'611.4
2018-Feb-12 17:30N 44°14' E 008°37'611.8
2018-Feb-12 17:00N 44°10' E 008°32'511.1
2018-Feb-12 16:30N 44°05' E 008°28'510.8
2018-Feb-12 16:00N 44°01' E 008°23'510.2
2018-Feb-12 15:30N 43°57' E 008°19'510.6
2018-Feb-12 15:00N 43°52' E 008°15'4311.8
2018-Feb-12 11:21N 43°21' E 007°34'512.8
2018-Feb-12 10:59N 43°19' E 007°28'612.7
2018-Feb-12 10:30N 43°16' E 007°21'612.4
2018-Feb-12 10:00N 43°13' E 007°14'612.4
2018-Feb-12 09:30N 43°09' E 007°07'8110.9
2018-Feb-12 02:07N 43°05' E 005°17'313.2
2018-Feb-12 01:52N 43°06' E 005°12'513.0
2018-Feb-12 01:30N 43°08' E 005°06'611.1
2018-Feb-12 00:59N 43°12' E 005°01'613.2
2018-Feb-12 00:30N 43°18' E 004°59'510.1
2018-Feb-12 00:00N 43°23' E 004°57'5 9.1
2018-Feb-11 23:30N 43°25' E 004°51'0 0.3
2018-Feb-11 23:00N 43°25' E 004°51'0 0.0
2018-Feb-11 22:27N 43°25' E 004°51'0 0.0
2018-Feb-11 22:00N 43°25' E 004°51'0 0.0
2018-Feb-11 21:30N 43°25' E 004°51'0 0.0
2018-Feb-11 21:00N 43°25' E 004°51'0 0.0
2018-Feb-11 20:30N 43°25' E 004°51'0 0.0
2018-Feb-11 19:57N 43°25' E 004°51'0 0.0
2018-Feb-11 19:30N 43°25' E 004°51'0 0.0
2018-Feb-11 19:00N 43°25' E 004°51'0 0.0
2018-Feb-11 18:30N 43°25' E 004°51'0 0.0
2018-Feb-11 18:00N 43°25' E 004°51'0 0.0
2018-Feb-11 17:30N 43°25' E 004°51'0 0.0
2018-Feb-11 17:00N 43°25' E 004°51'0 0.0
2018-Feb-11 16:30N 43°25' E 004°51'0 0.0
2018-Feb-11 16:00N 43°25' E 004°51'0 0.0
2018-Feb-11 15:30N 43°25' E 004°51'  
Track history (hours):
 
Tides and Currents Weather Stations Pressure Air Temp Water Temp Dewpoint Dewpoint Depression Visibility Wind Speed Wind Dir Waves Ship Positions

CMA CGM Columba

Last reported at 2018-Feb-21 15:03 UTC. Time now 2018-Feb-23 03:03 UTC.
Position N 31°39' E 032°28'.

Length 363 m; draft 14.5 m.

Type: Ship (hazmat cat D). MMSI: 235077448.

Date/timePositionNaut miles runAvg speedWind from/ knotsBaromVisibWave heightAir tempDewpointWater temp
2018-Feb-21 15:03N 31°39' E 032°28'312.6
2018-Feb-21 14:48N 31°40' E 032°31'412.3
2018-Feb-21 14:29N 31°42' E 032°35'  
2018-Feb-17 10:55N 35°43' E 014°56'818.5
2018-Feb-17 10:30N 35°44' E 014°47'916.8
2018-Feb-17 09:58N 35°47' E 014°37'4 8.8
2018-Feb-17 09:30N 35°49' E 014°32'0 0.0
2018-Feb-16 16:13N 35°49' E 014°32'0 0.0
2018-Feb-16 08:46N 35°49' E 014°32'0 1.1
2018-Feb-16 08:25N 35°49' E 014°32'2 5.8
2018-Feb-16 08:00N 35°48' E 014°35'1 1.9
2018-Feb-16 07:30N 35°47' E 014°36'0 0.6
2018-Feb-16 07:00N 35°47' E 014°36'45912.9
2018-Feb-14 19:21N 42°28' E 009°49'2814.3
2018-Feb-14 17:22N 42°55' E 009°37'514.3
2018-Feb-14 17:01N 43°00' E 009°36'714.7
2018-Feb-14 16:30N 43°07' E 009°32'714.7
2018-Feb-14 16:01N 43°14' E 009°27'714.5
2018-Feb-14 15:31N 43°20' E 009°23'714.4
2018-Feb-14 15:01N 43°27' E 009°19'713.8
2018-Feb-14 14:30N 43°33' E 009°15'918.1
2018-Feb-14 14:01N 43°41' E 009°10'918.8
2018-Feb-14 13:30N 43°49' E 009°03'1018.7
2018-Feb-14 13:00N 43°58' E 008°58'918.6
2018-Feb-14 12:30N 44°06' E 008°52'919.0
2018-Feb-14 12:01N 44°15' E 008°46'816.5
2018-Feb-14 11:31N 44°23' E 008°43'4 7.7
2018-Feb-14 11:00N 44°25' E 008°47'0 0.4
2018-Feb-14 10:30N 44°25' E 008°47'0 0.0
2018-Feb-14 10:00N 44°25' E 008°47'0 0.0
2018-Feb-14 09:30N 44°25' E 008°47'0 0.0
2018-Feb-14 09:00N 44°25' E 008°47'0 0.0
2018-Feb-14 08:30N 44°25' E 008°47'0 0.0
2018-Feb-14 08:00N 44°25' E 008°47'0 0.0
2018-Feb-14 07:30N 44°25' E 008°47'0 0.0
2018-Feb-14 07:00N 44°25' E 008°47'0 0.0
2018-Feb-14 06:30N 44°25' E 008°47'0 0.0
2018-Feb-14 06:00N 44°25' E 008°47'0 0.0
2018-Feb-14 05:30N 44°25' E 008°47'0 0.0
2018-Feb-14 05:00N 44°25' E 008°47'0 0.0
2018-Feb-14 04:30N 44°25' E 008°47'0 0.0
2018-Feb-14 04:00N 44°25' E 008°47'0 0.0
2018-Feb-14 03:30N 44°25' E 008°47'0 0.0
2018-Feb-14 03:00N 44°25' E 008°47'0 0.0
2018-Feb-14 02:30N 44°25' E 008°47'0 0.0
2018-Feb-14 02:00N 44°25' E 008°47'0 0.0
2018-Feb-14 01:30N 44°25' E 008°47'0 0.0
2018-Feb-14 00:57N 44°25' E 008°47'0 0.0
2018-Feb-14 00:30N 44°25' E 008°47'0 0.0
2018-Feb-14 00:00N 44°25' E 008°47'0 0.0
2018-Feb-13 23:30N 44°25' E 008°47'0 0.0
2018-Feb-13 23:00N 44°25' E 008°47'0 0.0
2018-Feb-13 22:30N 44°25' E 008°47'0 0.0
2018-Feb-13 22:00N 44°25' E 008°47'0 0.0
2018-Feb-13 21:27N 44°25' E 008°47'0 0.0
2018-Feb-13 20:57N 44°25' E 008°47'0 0.0
2018-Feb-13 20:30N 44°25' E 008°47'0 0.0
2018-Feb-13 20:00N 44°25' E 008°47'0 0.0
2018-Feb-13 19:30N 44°25' E 008°47'0 0.0
2018-Feb-13 18:57N 44°25' E 008°47'0 0.0
2018-Feb-13 18:30N 44°25' E 008°47'0 0.0
2018-Feb-13 18:00N 44°25' E 008°47'0 0.0
2018-Feb-13 17:30N 44°25' E 008°47'0 0.0
2018-Feb-13 17:00N 44°25' E 008°47'0 0.0
2018-Feb-13 16:30N 44°25' E 008°47'0 0.0
2018-Feb-13 15:57N 44°25' E 008°47'0 0.0
2018-Feb-13 15:30N 44°25' E 008°47'0 0.0
2018-Feb-13 15:00N 44°25' E 008°47'0 0.0
2018-Feb-13 14:30N 44°25' E 008°47'0 0.0
2018-Feb-13 14:00N 44°25' E 008°47'0 0.0
2018-Feb-13 13:30N 44°25' E 008°47'0 0.0
2018-Feb-13 13:00N 44°25' E 008°47'0 0.0
2018-Feb-13 12:30N 44°25' E 008°47'0 0.1
2018-Feb-13 12:00N 44°25' E 008°47'0 0.1
2018-Feb-13 11:27N 44°25' E 008°47'0 0.0
2018-Feb-13 11:00N 44°25' E 008°47'0 0.0
2018-Feb-13 10:30N 44°25' E 008°47'0 0.0
2018-Feb-13 10:00N 44°25' E 008°47'0 0.0
2018-Feb-13 09:30N 44°25' E 008°47'0 0.0
2018-Feb-13 09:00N 44°25' E 008°47'0 0.0
2018-Feb-13 08:30N 44°25' E 008°47'0 0.0
2018-Feb-13 08:00N 44°25' E 008°47'0 0.0
2018-Feb-13 07:30N 44°25' E 008°47'0 0.0
2018-Feb-13 07:00N 44°25' E 008°47'0 0.0
2018-Feb-13 06:30N 44°25' E 008°47'0 0.0
2018-Feb-13 06:00N 44°25' E 008°47'0 0.0
2018-Feb-13 05:30N 44°25' E 008°47'0 0.1
2018-Feb-13 05:00N 44°25' E 008°47'1 2.6
2018-Feb-13 04:30N 44°25' E 008°45'2 3.6
2018-Feb-13 04:00N 44°23' E 008°45'0 0.6
2018-Feb-13 03:30N 44°23' E 008°45'0 0.2
2018-Feb-13 03:00N 44°23' E 008°45'0 0.0
2018-Feb-13 02:30N 44°23' E 008°45'0 0.0
2018-Feb-13 02:00N 44°23' E 008°45'0 0.1
2018-Feb-13 01:30N 44°23' E 008°45'0 0.0
2018-Feb-13 01:00N 44°23' E 008°45'0 0.1
2018-Feb-13 00:30N 44°23' E 008°45'0 0.0
2018-Feb-13 00:00N 44°23' E 008°45'0 0.1
2018-Feb-12 23:30N 44°23' E 008°45'0 0.0
2018-Feb-12 23:00N 44°23' E 008°45'0 0.0
2018-Feb-12 22:30N 44°23' E 008°45'0 0.0
2018-Feb-12 22:00N 44°23' E 008°45'0 0.1
2018-Feb-12 21:30N 44°23' E 008°45'0 0.0
2018-Feb-12 21:00N 44°23' E 008°45'0 0.0
2018-Feb-12 20:30N 44°23' E 008°45'0 0.1
2018-Feb-12 20:00N 44°23' E 008°45'0 0.0
2018-Feb-12 19:30N 44°23' E 008°45'0 0.2
2018-Feb-12 19:00N 44°23' E 008°45'1 2.9
2018-Feb-12 18:30N 44°22' E 008°44'3 5.7
2018-Feb-12 18:00N 44°19' E 008°42'611.4
2018-Feb-12 17:30N 44°14' E 008°37'611.8
2018-Feb-12 17:00N 44°10' E 008°32'511.1
2018-Feb-12 16:30N 44°05' E 008°28'510.8
2018-Feb-12 16:00N 44°01' E 008°23'510.2
2018-Feb-12 15:30N 43°57' E 008°19'510.6
2018-Feb-12 15:00N 43°52' E 008°15'4311.8
2018-Feb-12 11:21N 43°21' E 007°34'512.8
2018-Feb-12 10:59N 43°19' E 007°28'612.7
2018-Feb-12 10:30N 43°16' E 007°21'612.4
2018-Feb-12 10:00N 43°13' E 007°14'612.4
2018-Feb-12 09:30N 43°09' E 007°07'8110.9
2018-Feb-12 02:07N 43°05' E 005°17'313.2
2018-Feb-12 01:52N 43°06' E 005°12'513.0
2018-Feb-12 01:30N 43°08' E 005°06'611.1
2018-Feb-12 00:59N 43°12' E 005°01'613.2
2018-Feb-12 00:30N 43°18' E 004°59'510.1
2018-Feb-12 00:00N 43°23' E 004°57'5 9.1
2018-Feb-11 23:30N 43°25' E 004°51'0 0.3
2018-Feb-11 23:00N 43°25' E 004°51'0 0.0
2018-Feb-11 22:27N 43°25' E 004°51'0 0.0
2018-Feb-11 22:00N 43°25' E 004°51'0 0.0
2018-Feb-11 21:30N 43°25' E 004°51'0 0.0
2018-Feb-11 21:00N 43°25' E 004°51'0 0.0
2018-Feb-11 20:30N 43°25' E 004°51'0 0.0
2018-Feb-11 19:57N 43°25' E 004°51'0 0.0
2018-Feb-11 19:30N 43°25' E 004°51'0 0.0
2018-Feb-11 19:00N 43°25' E 004°51'0 0.0
2018-Feb-11 18:30N 43°25' E 004°51'0 0.0
2018-Feb-11 18:00N 43°25' E 004°51'0 0.0
2018-Feb-11 17:30N 43°25' E 004°51'0 0.0
2018-Feb-11 17:00N 43°25' E 004°51'0 0.0
2018-Feb-11 16:30N 43°25' E 004°51'0 0.0
2018-Feb-11 16:00N 43°25' E 004°51'0 0.0
2018-Feb-11 15:30N 43°25' E 004°51'  

Dump ship's entire track history